Time;durP1;ratioP1;P1;durP2;ratioP2;P2;SDS_P1;SDS_P2;PMS_P1;PMS_P2;Temp;Humidity;BMP_temperature;BMP_pressure;BME280_temperature;BME280_humidity;BME280_pressure;Samples;Min_cycle;Max_cycle;Signal;HPM_P1;HPM_P2
2021/05/13 00:01:26;;;;;;;6.10;2.30;;;13.10;99.90;;;;;;5074134;28;20205;-74
2021/05/13 00:03:54;;;;;;;3.03;2.72;;;13.20;99.90;;;;;;5073847;28;20675;-74
2021/05/13 00:06:21;;;;;;;6.20;3.25;;;13.20;99.90;;;;;;5073805;28;20229;-75
2021/05/13 00:08:54;;;;;;;4.28;3.10;;;13.10;99.90;;;;;;5073824;28;20208;-74
2021/05/13 00:11:25;;;;;;;3.45;3.05;;;13.10;99.90;;;;;;5073969;28;20661;-75
2021/05/13 00:13:52;;;;;;;4.65;3.20;;;13.10;99.90;;;;;;5073774;28;20199;-77
2021/05/13 00:16:20;;;;;;;6.68;3.13;;;13.00;99.90;;;;;;5073873;28;20261;-77
2021/05/13 00:18:48;;;;;;;3.03;2.72;;;13.00;99.90;;;;;;5074617;28;20252;-77
2021/05/13 00:21:14;;;;;;;3.20;2.90;;;13.00;99.90;;;;;;5074272;28;20224;-77
2021/05/13 00:23:41;;;;;;;6.03;3.17;;;12.90;99.90;;;;;;5073941;28;20276;-77
2021/05/13 00:26:07;;;;;;;3.50;3.20;;;12.90;99.90;;;;;;5073700;28;20272;-74
2021/05/13 00:28:33;;;;;;;5.07;2.80;;;12.80;99.90;;;;;;5073676;28;20251;-74
2021/05/13 00:30:59;;;;;;;3.42;3.03;;;12.80;99.90;;;;;;5073636;28;20198;-75
2021/05/13 00:33:26;;;;;;;3.13;2.83;;;12.80;99.90;;;;;;5073443;28;20203;-74
2021/05/13 00:35:53;;;;;;;3.70;2.95;;;12.80;99.90;;;;;;5073433;28;20226;-75
2021/05/13 00:38:19;;;;;;;2.88;2.53;;;12.80;99.90;;;;;;5073465;28;20629;-75
2021/05/13 00:40:45;;;;;;;3.20;2.63;;;12.90;99.90;;;;;;5073669;28;20294;-75
2021/05/13 00:43:12;;;;;;;2.97;2.70;;;13.00;99.90;;;;;;5073356;28;20205;-75
2021/05/13 00:45:41;;;;;;;3.97;3.00;;;13.10;99.90;;;;;;5073183;28;20222;-75
2021/05/13 00:48:14;;;;;;;3.88;3.22;;;13.10;99.90;;;;;;5073041;28;20672;-75
2021/05/13 00:50:40;;;;;;;3.50;2.95;;;13.10;99.90;;;;;;5073330;28;20244;-75
2021/05/13 00:53:09;;;;;;;3.05;2.75;;;13.10;99.90;;;;;;5073153;28;20211;-75
2021/05/13 00:55:35;;;;;;;4.25;2.60;;;13.10;99.90;;;;;;5072930;28;20227;-75
2021/05/13 00:58:02;;;;;;;3.58;2.80;;;13.10;99.90;;;;;;5072980;28;20233;-75
2021/05/13 01:00:34;;;;;;;3.28;2.97;;;13.10;99.90;;;;;;5072871;28;20245;-75
2021/05/13 01:03:01;;;;;;;3.53;3.00;;;13.00;99.90;;;;;;5073078;28;20229;-75
2021/05/13 01:05:30;;;;;;;2.78;2.58;;;12.90;99.90;;;;;;5072796;28;20230;-75
2021/05/13 01:07:57;;;;;;;3.08;2.78;;;13.00;99.90;;;;;;5072963;28;20285;-75
2021/05/13 01:10:26;;;;;;;3.13;2.90;;;13.10;99.90;;;;;;5072723;28;20611;-75
2021/05/13 01:12:53;;;;;;;2.92;2.55;;;13.10;99.90;;;;;;5073006;28;20199;-74
2021/05/13 01:15:24;;;;;;;5.65;2.95;;;13.10;99.90;;;;;;5071739;28;20234;-73
2021/05/13 01:17:58;;;;;;;3.20;2.92;;;13.10;99.90;;;;;;5072607;28;20703;-74
2021/05/13 01:20:27;;;;;;;5.75;3.00;;;13.00;99.90;;;;;;5072805;28;20282;-74
2021/05/13 01:22:54;;;;;;;4.15;2.80;;;13.00;99.90;;;;;;5072608;28;20203;-74
2021/05/13 01:25:21;;;;;;;3.35;2.92;;;13.10;99.90;;;;;;5072518;28;20223;-73
2021/05/13 01:27:47;;;;;;;3.95;3.00;;;13.10;99.90;;;;;;5072434;28;20289;-74
2021/05/13 01:30:15;;;;;;;4.05;2.70;;;13.00;99.90;;;;;;5072431;28;20306;-74
2021/05/13 01:32:42;;;;;;;4.07;3.10;;;12.80;99.90;;;;;;5072279;28;20217;-73
2021/05/13 01:35:09;;;;;;;5.03;3.00;;;12.80;99.90;;;;;;5072486;28;20233;-73
2021/05/13 01:37:35;;;;;;;4.88;3.80;;;12.90;99.90;;;;;;5072210;28;20215;-74
2021/05/13 01:40:04;;;;;;;3.75;3.20;;;12.70;99.90;;;;;;5072256;28;20202;-74
2021/05/13 01:42:30;;;;;;;3.45;3.13;;;12.70;99.90;;;;;;5072274;28;20215;-74
2021/05/13 01:44:56;;;;;;;4.95;3.72;;;12.70;99.90;;;;;;5072359;28;20600;-74
2021/05/13 01:47:23;;;;;;;4.97;4.07;;;12.70;99.90;;;;;;5072142;28;20281;-74
2021/05/13 01:49:50;;;;;;;4.68;4.20;;;12.80;99.90;;;;;;5072316;28;20212;-73
2021/05/13 01:52:16;;;;;;;6.40;4.10;;;12.60;99.90;;;;;;5071922;28;20829;-74
2021/05/13 01:54:42;;;;;;;6.03;4.25;;;12.60;99.90;;;;;;5071838;28;20714;-74
2021/05/13 01:57:10;;;;;;;4.80;4.30;;;12.60;99.90;;;;;;5071832;28;20313;-74
2021/05/13 01:59:36;;;;;;;8.68;4.53;;;12.60;99.90;;;;;;5072259;28;20616;-74
2021/05/13 02:02:03;;;;;;;5.20;4.38;;;12.50;99.90;;;;;;5072119;28;20210;-74
2021/05/13 02:04:31;;;;;;;5.82;4.50;;;12.40;99.90;;;;;;5072322;28;20745;-74
2021/05/13 02:06:57;;;;;;;7.43;6.22;;;12.30;99.90;;;;;;5073401;28;20692;-73
2021/05/13 02:09:24;;;;;;;6.18;4.47;;;12.30;99.90;;;;;;5074012;28;20198;-74
2021/05/13 02:11:52;;;;;;;11.07;5.30;;;12.20;99.90;;;;;;5074084;28;20251;-72
2021/05/13 02:14:20;;;;;;;7.18;5.05;;;12.20;99.90;;;;;;5074683;28;20728;-73
2021/05/13 02:16:46;;;;;;;5.60;4.85;;;12.30;99.90;;;;;;5074587;28;20605;-73
2021/05/13 02:19:12;;;;;;;6.10;4.20;;;12.40;99.90;;;;;;5074595;28;20244;-73
2021/05/13 02:21:39;;;;;;;4.80;4.07;;;12.50;99.90;;;;;;5074693;28;20217;-72
2021/05/13 02:24:06;;;;;;;4.60;4.07;;;12.60;99.90;;;;;;5073886;28;20303;-72
2021/05/13 02:26:32;;;;;;;6.72;4.07;;;12.60;99.90;;;;;;5074437;28;20308;-72
2021/05/13 02:28:58;;;;;;;8.50;4.55;;;12.60;99.90;;;;;;5078399;28;20746;-73
2021/05/13 02:31:25;;;;;;;4.85;3.80;;;12.60;99.90;;;;;;5078670;28;20198;-73
2021/05/13 02:33:52;;;;;;;4.45;3.70;;;12.60;99.90;;;;;;5078352;28;20206;-73
2021/05/13 02:36:19;;;;;;;4.32;3.72;;;12.50;99.90;;;;;;5077993;28;20237;-72
2021/05/13 02:38:45;;;;;;;4.13;3.75;;;12.50;99.90;;;;;;5078219;28;20207;-72
2021/05/13 02:41:11;;;;;;;4.57;3.85;;;12.40;99.90;;;;;;5077801;28;20298;-72
2021/05/13 02:43:38;;;;;;;6.00;4.25;;;12.30;99.90;;;;;;5077455;28;20210;-73
2021/05/13 02:46:04;;;;;;;7.28;5.20;;;12.10;99.90;;;;;;5076997;28;20218;-73
2021/05/13 02:48:31;;;;;;;5.63;5.03;;;12.00;99.90;;;;;;5077089;28;20230;-72
2021/05/13 02:50:58;;;;;;;6.15;5.55;;;11.80;99.90;;;;;;5077450;28;20247;-72
2021/05/13 02:53:24;;;;;;;6.22;5.60;;;11.70;99.90;;;;;;5077192;28;20298;-72
2021/05/13 02:55:50;;;;;;;9.57;5.90;;;11.50;99.90;;;;;;5076611;28;20223;-73
2021/05/13 02:58:17;;;;;;;8.52;5.32;;;11.40;99.90;;;;;;5077190;28;20337;-72
2021/05/13 03:00:52;;;;;;;6.22;5.22;;;11.50;99.90;;;;;;5077313;28;20213;-72
2021/05/13 03:03:19;;;;;;;5.85;5.25;;;11.60;99.90;;;;;;5077099;28;20202;-73
2021/05/13 03:05:46;;;;;;;7.82;4.55;;;11.80;99.90;;;;;;5076632;28;20230;-72
2021/05/13 03:08:14;;;;;;;4.78;4.30;;;11.80;99.90;;;;;;5076716;28;20297;-72
2021/05/13 03:10:44;;;;;;;7.07;4.80;;;11.90;99.90;;;;;;5076871;28;20199;-72
2021/05/13 03:13:19;;;;;;;5.65;4.47;;;12.00;99.90;;;;;;5076812;28;20553;-72
2021/05/13 03:15:46;;;;;;;5.18;4.60;;;12.10;99.90;;;;;;5076735;28;20701;-72
2021/05/13 03:18:12;;;;;;;7.45;4.85;;;12.10;99.90;;;;;;5076900;28;20313;-72
2021/05/13 03:20:40;;;;;;;5.60;4.90;;;12.10;99.90;;;;;;5076855;28;20257;-72
2021/05/13 03:23:10;;;;;;;5.22;4.72;;;12.20;99.90;;;;;;5076707;28;20650;-73
2021/05/13 03:25:39;;;;;;;5.18;4.70;;;12.30;99.90;;;;;;5076968;28;20219;-72
2021/05/13 03:28:09;;;;;;;6.55;5.35;;;12.30;99.90;;;;;;5077340;28;20641;-73
2021/05/13 03:30:40;;;;;;;7.03;5.50;;;12.40;99.90;;;;;;5077324;28;20609;-72
2021/05/13 03:33:06;;;;;;;7.72;4.75;;;12.40;99.90;;;;;;5077018;28;20297;-73
2021/05/13 03:35:34;;;;;;;6.43;4.63;;;12.50;99.90;;;;;;5076206;28;20719;-73
2021/05/13 03:38:00;;;;;;;5.63;4.97;;;12.40;99.90;;;;;;5075680;28;20223;-72
2021/05/13 03:40:28;;;;;;;6.20;5.38;;;12.20;99.90;;;;;;5076223;28;20234;-73
2021/05/13 03:42:55;;;;;;;7.32;5.55;;;12.00;99.90;;;;;;5076607;28;20203;-73
2021/05/13 03:45:21;;;;;;;6.40;5.68;;;12.00;99.90;;;;;;5075772;28;20225;-72
2021/05/13 03:47:48;;;;;;;5.75;4.82;;;11.90;99.90;;;;;;5076708;28;20305;-72
2021/05/13 03:50:15;;;;;;;4.78;4.28;;;11.90;99.90;;;;;;5075755;28;20289;-73
2021/05/13 03:52:41;;;;;;;4.95;4.40;;;12.00;99.90;;;;;;5076128;28;20215;-72
2021/05/13 03:55:08;;;;;;;5.97;4.60;;;12.10;99.90;;;;;;5076120;28;20313;-72
2021/05/13 03:57:35;;;;;;;7.15;5.00;;;12.20;99.90;;;;;;5076092;28;20229;-73
2021/05/13 04:00:06;;;;;;;6.93;4.95;;;12.20;99.90;;;;;;5076240;28;20233;-73
2021/05/13 04:02:33;;;;;;;4.97;4.05;;;12.20;99.90;;;;;;5076087;28;20345;-72
2021/05/13 04:05:00;;;;;;;5.25;4.75;;;12.20;99.90;;;;;;5076072;28;20203;-72
2021/05/13 04:07:28;;;;;;;7.22;4.53;;;12.30;99.90;;;;;;5076090;28;20289;-72
2021/05/13 04:09:55;;;;;;;6.28;4.30;;;12.40;99.90;;;;;;5076089;28;20669;-72
2021/05/13 04:12:22;;;;;;;6.38;4.78;;;12.40;99.90;;;;;;5075858;28;20290;-72
2021/05/13 04:14:49;;;;;;;6.43;4.75;;;12.40;99.90;;;;;;5075434;28;20207;-72
2021/05/13 04:17:15;;;;;;;6.03;4.88;;;12.40;99.90;;;;;;5075445;28;20327;-72
2021/05/13 04:19:42;;;;;;;4.50;4.10;;;12.30;99.90;;;;;;5075695;28;20293;-72
2021/05/13 04:22:08;;;;;;;5.78;4.93;;;12.30;99.90;;;;;;5075833;28;20569;-73
2021/05/13 04:24:34;;;;;;;6.53;4.78;;;12.30;99.90;;;;;;5075928;28;20297;-72
2021/05/13 04:27:01;;;;;;;6.50;5.05;;;12.20;99.90;;;;;;5074876;28;20226;-73
2021/05/13 04:29:27;;;;;;;6.07;4.35;;;12.10;99.90;;;;;;5075502;28;20202;-72
2021/05/13 04:31:54;;;;;;;5.78;4.95;;;12.10;99.90;;;;;;5075639;28;20202;-72
2021/05/13 04:34:21;;;;;;;5.28;4.50;;;12.20;99.90;;;;;;5075393;28;20298;-72
2021/05/13 04:36:47;;;;;;;6.30;5.30;;;12.10;99.90;;;;;;5074951;28;20364;-72
2021/05/13 04:39:14;;;;;;;17.33;5.55;;;11.80;99.90;;;;;;5075737;28;20665;-72
2021/05/13 04:41:40;;;;;;;7.15;5.45;;;11.70;99.90;;;;;;5074947;28;20203;-72
2021/05/13 04:44:07;;;;;;;6.13;4.65;;;11.70;99.90;;;;;;5075074;28;20199;-72
2021/05/13 04:46:35;;;;;;;6.57;5.43;;;11.60;99.90;;;;;;5074714;28;20305;-72
2021/05/13 04:49:16;;;;;;;7.32;5.70;;;11.50;99.90;;;;;;5074889;28;20288;-72
2021/05/13 04:51:44;;;;;;;7.22;5.30;;;11.50;99.90;;;;;;5075212;28;20248;-73
2021/05/13 04:54:12;;;;;;;7.80;5.10;;;11.60;99.90;;;;;;5074431;28;20233;-72
2021/05/13 04:56:38;;;;;;;6.78;5.25;;;11.70;99.90;;;;;;5074522;28;20684;-72
2021/05/13 04:59:05;;;;;;;6.15;5.20;;;11.70;99.90;;;;;;5074832;28;20290;-72
2021/05/13 05:01:31;;;;;;;8.90;6.05;;;11.70;99.90;;;;;;5075336;28;20211;-73
2021/05/13 05:03:58;;;;;;;8.98;6.15;;;11.80;99.90;;;;;;5075003;28;20645;-72
2021/05/13 05:06:25;;;;;;;7.75;5.57;;;11.70;99.90;;;;;;5074520;28;20313;-72
2021/05/13 05:08:51;;;;;;;8.40;4.85;;;11.80;99.90;;;;;;5074664;28;20195;-73
2021/05/13 05:11:20;;;;;;;8.05;5.55;;;12.00;99.90;;;;;;5075116;28;20338;-73
2021/05/13 05:13:47;;;;;;;6.88;5.63;;;12.10;99.90;;;;;;5075142;28;20541;-73
2021/05/13 05:16:13;;;;;;;6.25;5.25;;;12.30;99.90;;;;;;5074908;28;20596;-72
2021/05/13 05:18:39;;;;;;;7.53;6.20;;;12.40;99.90;;;;;;5075222;28;20230;-73
2021/05/13 05:21:06;;;;;;;14.85;8.90;;;12.40;99.90;;;;;;5075134;28;20256;-73
2021/05/13 05:23:33;;;;;;;8.05;5.60;;;12.50;99.90;;;;;;5075292;28;20202;-73
2021/05/13 05:26:00;;;;;;;6.43;5.68;;;12.50;99.90;;;;;;5075049;28;20237;-72
2021/05/13 05:28:27;;;;;;;10.27;5.68;;;12.50;99.90;;;;;;5075615;28;20210;-73
2021/05/13 05:30:53;;;;;;;7.60;5.80;;;12.50;99.90;;;;;;5075385;28;20233;-73
2021/05/13 05:33:21;;;;;;;6.40;4.93;;;12.40;99.90;;;;;;5074972;28;20202;-73
2021/05/13 05:35:48;;;;;;;5.85;4.70;;;12.30;99.90;;;;;;5073945;28;20248;-72
2021/05/13 05:38:14;;;;;;;5.85;5.20;;;12.30;99.90;;;;;;5074874;28;20264;-73
2021/05/13 05:40:41;;;;;;;6.80;5.78;;;12.40;99.90;;;;;;5074399;28;20260;-73
2021/05/13 05:43:08;;;;;;;6.35;5.30;;;12.30;99.90;;;;;;5074428;28;20236;-72
2021/05/13 05:45:34;;;;;;;6.10;5.47;;;12.40;99.90;;;;;;5074292;28;20313;-72
2021/05/13 05:48:01;;;;;;;7.85;4.93;;;12.40;99.90;;;;;;5074737;28;20195;-73
2021/05/13 05:50:29;;;;;;;6.28;5.35;;;12.50;99.90;;;;;;5074456;28;20213;-73
2021/05/13 05:52:55;;;;;;;5.50;4.50;;;12.50;99.90;;;;;;5074298;28;20211;-73
2021/05/13 05:55:22;;;;;;;4.47;4.00;;;12.50;99.90;;;;;;5073903;28;20704;-72
2021/05/13 05:57:50;;;;;;;4.70;4.20;;;12.50;99.90;;;;;;5074343;28;20309;-73
2021/05/13 06:00:17;;;;;;;5.40;4.22;;;12.60;99.90;;;;;;5075041;28;20213;-73
2021/05/13 06:02:44;;;;;;;4.10;3.70;;;12.70;99.90;;;;;;5074763;28;20207;-73
2021/05/13 06:05:12;;;;;;;4.68;3.92;;;12.80;99.90;;;;;;5074480;28;20560;-73
2021/05/13 06:07:38;;;;;;;5.00;4.40;;;12.80;99.90;;;;;;5074159;28;20202;-72
2021/05/13 06:10:07;;;;;;;4.78;4.18;;;12.80;99.90;;;;;;5074179;28;20293;-73
2021/05/13 06:12:33;;;;;;;6.97;4.57;;;12.80;99.90;;;;;;5074420;28;20238;-73
2021/05/13 06:15:01;;;;;;;5.13;4.18;;;12.80;99.90;;;;;;5074304;28;20209;-72
2021/05/13 06:17:28;;;;;;;6.00;3.72;;;12.80;99.90;;;;;;5074313;28;20644;-72
2021/05/13 06:20:00;;;;;;;5.25;4.15;;;12.80;99.90;;;;;;5073983;28;20198;-72
2021/05/13 06:22:26;;;;;;;3.58;3.03;;;12.90;99.90;;;;;;5074248;28;20206;-73
2021/05/13 06:24:53;;;;;;;3.85;3.30;;;13.00;99.90;;;;;;5074713;28;20228;-73
2021/05/13 06:27:20;;;;;;;4.43;3.50;;;13.00;99.90;;;;;;5074283;28;20199;-72
2021/05/13 06:29:46;;;;;;;4.35;3.40;;;13.10;99.90;;;;;;5074477;28;20206;-72
2021/05/13 06:32:14;;;;;;;3.25;3.00;;;13.10;99.90;;;;;;5074157;28;20285;-73
2021/05/13 06:34:40;;;;;;;5.13;3.20;;;13.20;99.90;;;;;;5074067;28;20213;-73
2021/05/13 06:37:06;;;;;;;3.28;2.97;;;13.30;99.90;;;;;;5074088;28;20638;-73
2021/05/13 06:39:33;;;;;;;7.40;5.30;;;13.40;99.90;;;;;;5074240;28;20207;-72
2021/05/13 06:41:59;;;;;;;8.30;6.10;;;13.30;99.90;;;;;;5074228;28;20203;-73
2021/05/13 06:44:25;;;;;;;8.65;6.45;;;13.30;99.90;;;;;;5074594;28;20615;-73
2021/05/13 06:46:52;;;;;;;7.20;6.40;;;13.30;99.90;;;;;;5074258;28;20310;-73
2021/05/13 06:49:19;;;;;;;9.23;7.10;;;13.40;99.90;;;;;;5074733;28;20301;-73
2021/05/13 06:51:46;;;;;;;9.18;7.03;;;13.50;99.90;;;;;;5075680;28;20207;-73
2021/05/13 06:54:13;;;;;;;8.38;5.88;;;13.70;99.90;;;;;;5075998;28;20301;-73
2021/05/13 06:56:40;;;;;;;6.47;5.88;;;13.90;99.90;;;;;;5075176;28;20260;-73
2021/05/13 06:59:07;;;;;;;9.60;6.60;;;14.10;99.90;;;;;;5076531;28;20253;-73
2021/05/13 07:01:34;;;;;;;6.97;6.25;;;14.10;99.90;;;;;;5075387;28;20565;-73
2021/05/13 07:04:00;;;;;;;7.90;6.10;;;14.10;99.90;;;;;;5073480;28;20202;-72
2021/05/13 07:06:27;;;;;;;10.23;6.20;;;14.30;99.90;;;;;;5072935;28;20278;-73
2021/05/13 07:08:54;;;;;;;9.40;5.53;;;14.30;99.90;;;;;;5073468;28;20585;-72
2021/05/13 07:11:20;;;;;;;6.80;5.68;;;14.50;99.90;;;;;;5074364;28;20205;-73
2021/05/13 07:13:46;;;;;;;7.45;5.80;;;14.60;99.90;;;;;;5074507;28;20290;-73
2021/05/13 07:16:12;;;;;;;6.60;4.97;;;14.80;99.90;;;;;;5076408;28;20236;-73
2021/05/13 07:18:39;;;;;;;7.75;5.47;;;14.90;99.90;;;;;;5077361;28;20239;-73
2021/05/13 07:21:05;;;;;;;7.57;4.05;;;14.90;99.90;;;;;;5077406;28;20233;-74
2021/05/13 07:23:32;;;;;;;4.53;3.92;;;14.60;99.90;;;;;;5077474;28;20239;-74
2021/05/13 07:26:00;;;;;;;5.07;3.30;;;14.70;99.90;;;;;;5076956;28;20227;-73
2021/05/13 07:28:26;;;;;;;3.80;3.50;;;14.80;99.90;;;;;;5077143;28;20198;-74
2021/05/13 07:30:52;;;;;;;4.45;3.50;;;14.90;99.90;;;;;;5076840;28;20722;-73
2021/05/13 07:33:19;;;;;;;4.80;3.65;;;14.80;99.90;;;;;;5076826;28;20704;-73
2021/05/13 07:35:45;;;;;;;4.05;3.50;;;14.70;99.90;;;;;;5076507;28;20230;-72
2021/05/13 07:38:11;;;;;;;3.83;3.13;;;14.70;99.90;;;;;;5076567;28;20230;-73
2021/05/13 07:40:39;;;;;;;4.40;3.35;;;14.80;99.90;;;;;;5076694;28;20725;-74
2021/05/13 07:43:05;;;;;;;5.20;3.40;;;14.90;99.90;;;;;;5076723;28;20555;-73
2021/05/13 07:45:33;;;;;;;3.30;3.10;;;15.10;99.90;;;;;;5076311;28;20637;-73
2021/05/13 07:48:00;;;;;;;4.53;3.65;;;15.30;99.90;;;;;;5076937;28;20206;-74
2021/05/13 07:50:27;;;;;;;4.30;3.80;;;15.60;99.90;;;;;;5076390;28;20210;-74
2021/05/13 07:52:54;;;;;;;4.65;3.55;;;15.90;99.90;;;;;;5076484;28;20209;-74
2021/05/13 07:55:20;;;;;;;3.55;3.22;;;16.30;99.90;;;;;;5076073;28;20223;-73
2021/05/13 07:57:48;;;;;;;4.05;3.58;;;17.10;99.90;;;;;;5076568;28;20225;-74
2021/05/13 08:00:15;;;;;;;2.87;2.67;;;17.90;99.90;;;;;;5077040;28;20207;-74
2021/05/13 08:02:42;;;;;;;3.03;2.73;;;19.70;99.90;;;;;;5076828;28;20445;-75
2021/05/13 08:05:09;;;;;;;4.00;3.20;;;21.90;96.70;;;;;;5076642;28;20527;-74
2021/05/13 08:07:36;;;;;;;3.00;2.80;;;24.10;90.30;;;;;;5076543;28;20531;-75
2021/05/13 08:10:03;;;;;;;3.03;2.73;;;25.20;81.60;;;;;;5076370;28;20481;-74
2021/05/13 08:12:29;;;;;;;3.30;3.00;;;25.20;72.60;;;;;;5075939;28;20440;-74
2021/05/13 08:14:56;;;;;;;2.93;2.63;;;26.20;67.60;;;;;;5075727;28;20535;-73
2021/05/13 08:17:23;;;;;;;2.80;2.60;;;26.90;64.30;;;;;;5075064;28;21039;-74
2021/05/13 08:19:49;;;;;;;2.97;2.60;;;26.60;62.90;;;;;;5075793;28;20483;-74
2021/05/13 08:22:15;;;;;;;2.60;2.40;;;26.30;61.60;;;;;;5075908;28;20480;-73
2021/05/13 08:24:42;;;;;;;3.83;2.53;;;27.30;61.30;;;;;;5075468;28;20520;-74
2021/05/13 08:27:08;;;;;;;3.40;3.10;;;27.50;59.30;;;;;;5075614;28;20863;-74
2021/05/13 08:29:34;;;;;;;3.77;3.40;;;28.20;58.50;;;;;;5077275;28;20798;-74
2021/05/13 08:32:01;;;;;;;2.83;2.53;;;29.50;56.20;;;;;;5078027;28;20528;-72
2021/05/13 08:34:28;;;;;;;4.00;2.53;;;30.40;53.60;;;;;;5075924;28;21002;-72
2021/05/13 08:36:54;;;;;;;2.47;2.30;;;32.40;46.70;;;;;;5074876;28;20804;-72
2021/05/13 08:39:21;;;;;;;2.43;2.30;;;33.30;41.00;;;;;;5075337;28;20437;-72
2021/05/13 08:41:47;;;;;;;2.20;2.00;;;34.10;40.00;;;;;;5075221;28;20448;-72
2021/05/13 08:44:13;;;;;;;2.80;2.60;;;34.60;39.20;;;;;;5075426;28;20441;-72
2021/05/13 08:46:40;;;;;;;2.90;2.70;;;35.30;35.90;;;;;;5074814;28;20535;-72
2021/05/13 08:49:07;;;;;;;2.83;2.40;;;35.70;33.00;;;;;;5075600;28;20468;-72
2021/05/13 08:51:37;;;;;;;3.00;2.80;;;34.90;34.10;;;;;;5075276;28;20441;-72
2021/05/13 08:54:04;;;;;;;2.77;2.57;;;32.30;36.70;;;;;;5075796;28;20465;-72
2021/05/13 08:56:31;;;;;;;2.70;2.50;;;30.30;38.90;;;;;;5075831;28;20473;-74
2021/05/13 08:59:03;;;;;;;3.00;2.80;;;27.90;43.40;;;;;;5075695;28;20567;-76
2021/05/13 09:01:30;;;;;;;2.73;2.20;;;24.90;46.20;;;;;;5075044;28;20448;-76
2021/05/13 09:03:58;;;;;;;2.90;2.70;;;22.70;53.60;;;;;;5074908;28;20519;-75
2021/05/13 09:06:28;;;;;;;5.30;2.80;;;21.60;57.20;;;;;;5074805;28;20467;-75
2021/05/13 09:08:55;;;;;;;3.00;2.40;;;20.70;63.50;;;;;;5074777;28;20849;-75
2021/05/13 09:11:22;;;;;;;3.80;2.93;;;20.30;63.70;;;;;;5074727;28;20530;-75
2021/05/13 09:14:02;;;;;;;2.87;2.50;;;20.10;66.30;;;;;;5074851;28;20518;-75
2021/05/13 09:16:31;;;;;;;2.90;2.53;;;21.10;63.00;;;;;;5074302;28;20472;-75
2021/05/13 09:18:58;;;;;;;2.30;2.10;;;22.10;57.70;;;;;;5074381;28;20572;-75
2021/05/13 09:21:25;;;;;;;2.80;2.50;;;23.10;58.40;;;;;;5074318;28;20448;-76
2021/05/13 09:23:52;;;;;;;3.43;2.27;;;24.30;54.30;;;;;;5074575;28;20443;-76
2021/05/13 09:26:20;;;;;;;2.80;2.57;;;24.30;50.60;;;;;;5074337;28;20472;-75
2021/05/13 09:28:48;;;;;;;2.10;2.00;;;22.60;53.10;;;;;;5074412;28;20441;-75
2021/05/13 09:31:35;;;;;;;3.30;2.40;;;21.80;56.70;;;;;;5073868;28;20844;-75
2021/05/13 09:34:06;;;;;;;3.20;2.87;;;21.30;59.50;;;;;;5074040;28;20450;-75
2021/05/13 09:36:33;;;;;;;2.87;2.30;;;20.80;59.90;;;;;;5073217;28;20823;-75
2021/05/13 09:39:00;;;;;;;4.07;3.00;;;20.30;64.10;;;;;;5074513;28;20485;-75
2021/05/13 09:41:28;;;;;;;3.10;2.33;;;20.00;69.30;;;;;;5074081;28;20523;-75
2021/05/13 09:43:55;;;;;;;2.77;2.57;;;19.70;73.90;;;;;;5074014;28;20773;-75
2021/05/13 09:46:32;;;;;;;2.50;2.30;;;19.60;74.60;;;;;;5073836;28;20468;-75
2021/05/13 09:48:59;;;;;;;2.70;2.40;;;19.40;72.30;;;;;;5074383;28;20528;-75
2021/05/13 09:51:27;;;;;;;4.35;2.78;;;19.40;74.00;;;;;;5074347;28;20465;-75
2021/05/13 09:54:07;;;;;;;2.60;2.40;;;19.20;72.30;;;;;;5074053;28;20266;-75
2021/05/13 09:56:34;;;;;;;3.65;3.05;;;19.20;71.70;;;;;;5072929;28;20550;-75
2021/05/13 09:59:21;;;;;;;3.10;2.80;;;19.00;72.90;;;;;;5074115;28;20219;-75
2021/05/13 10:01:48;;;;;;;2.88;2.42;;;18.80;71.90;;;;;;5070038;28;20714;-76
2021/05/13 10:04:14;;;;;;;3.65;2.60;;;18.80;71.90;;;;;;5072592;28;20207;-77
2021/05/13 10:06:41;;;;;;;3.22;2.80;;;18.80;70.40;;;;;;5072325;28;20366;-77
2021/05/13 10:09:09;;;;;;;2.83;2.50;;;18.70;72.00;;;;;;5072496;28;20199;-76
2021/05/13 10:11:35;;;;;;;2.20;2.00;;;18.80;74.00;;;;;;5072503;28;20253;-76
2021/05/13 10:14:02;;;;;;;3.97;2.63;;;19.50;76.20;;;;;;5072205;28;20981;-76
2021/05/13 10:16:30;;;;;;;2.23;2.03;;;19.70;69.90;;;;;;5071645;28;21075;-76
2021/05/13 10:19:01;;;;;;;3.20;2.30;;;19.10;68.10;;;;;;5072114;28;20568;-76
2021/05/13 10:21:31;;;;;;;3.55;2.00;;;18.70;69.90;;;;;;5072488;28;20256;-76
2021/05/13 10:23:58;;;;;;;2.30;1.95;;;18.70;72.30;;;;;;5072356;28;20230;-77
2021/05/13 10:26:48;;;;;;;2.03;1.80;;;18.70;73.90;;;;;;5072132;28;20314;-76
2021/05/13 10:29:35;;;;;;;2.70;2.08;;;18.90;72.40;;;;;;5072254;28;20607;-77
2021/05/13 10:32:10;;;;;;;3.00;2.20;;;18.80;73.50;;;;;;5072196;28;20672;-77
2021/05/13 10:34:49;;;;;;;2.88;2.50;;;18.70;76.60;;;;;;5072208;28;20206;-77
2021/05/13 10:37:18;;;;;;;2.47;2.28;;;18.80;76.90;;;;;;5072293;28;20635;-76
2021/05/13 10:40:18;;;;;;;1.60;1.50;;;18.70;72.30;;;;;;5072314;28;20577;-76
2021/05/13 10:42:48;;;;;;;2.03;1.63;;;18.50;68.80;;;;;;5072341;28;20204;-77
2021/05/13 10:45:37;;;;;;;2.15;1.95;;;18.50;69.80;;;;;;5071966;28;20658;-76
2021/05/13 10:48:22;;;;;;;1.98;1.77;;;18.30;68.90;;;;;;5073731;28;20237;-75
2021/05/13 10:50:51;;;;;;;3.38;1.70;;;18.20;70.80;;;;;;5075838;28;20696;-76
2021/05/13 10:53:42;;;;;;;2.17;1.80;;;18.20;71.30;;;;;;5075677;28;20301;-76
2021/05/13 10:56:23;;;;;;;1.95;1.85;;;18.30;70.80;;;;;;5075554;28;20281;-77
2021/05/13 10:59:03;;;;;;;1.80;1.70;;;18.40;72.00;;;;;;5075618;28;20726;-76
2021/05/13 11:01:42;;;;;;;1.90;1.80;;;18.50;72.70;;;;;;5076173;28;20207;-76
2021/05/13 11:04:35;;;;;;;2.25;2.05;;;18.30;71.90;;;;;;5075642;28;20210;-76
2021/05/13 11:07:04;;;;;;;2.00;1.90;;;18.40;73.00;;;;;;5061363;28;20259;-75
2021/05/13 11:09:50;;;;;;;2.75;1.95;;;18.20;71.50;;;;;;5075867;28;20207;-76
2021/05/13 11:12:17;;;;;;;3.75;2.05;;;18.00;74.40;;;;;;5075497;28;20206;-76
2021/05/13 11:15:23;;;;;;;2.97;1.70;;;18.00;76.20;;;;;;5075251;28;20238;-75
2021/05/13 11:18:07;;;;;;;2.10;1.90;;;17.80;77.40;;;;;;5075653;28;20333;-74
2021/05/13 11:20:37;;;;;;;1.85;1.75;;;17.70;80.10;;;;;;5075458;28;20203;-75
2021/05/13 11:23:05;;;;;;;2.60;2.10;;;17.70;80.10;;;;;;5075379;28;20202;-75
2021/05/13 11:25:40;;;;;;;2.50;1.90;;;17.80;80.50;;;;;;5074735;28;20222;-75
2021/05/13 11:28:24;;;;;;;3.38;1.92;;;18.00;79.50;;;;;;5075502;28;20653;-75
2021/05/13 11:30:53;;;;;;;3.65;2.17;;;18.00;78.90;;;;;;5075584;28;20305;-76
2021/05/13 11:33:20;;;;;;;5.57;3.45;;;18.20;79.50;;;;;;5075203;28;20297;-77
2021/05/13 11:35:46;;;;;;;2.90;2.28;;;18.30;80.90;;;;;;5075272;28;20647;-76
2021/05/13 11:38:18;;;;;;;3.30;2.15;;;18.50;77.60;;;;;;5075287;28;20634;-77
2021/05/13 11:40:45;;;;;;;2.10;1.90;;;18.40;79.30;;;;;;5075219;28;20289;-74
2021/05/13 11:43:25;;;;;;;2.50;1.60;;;18.20;77.00;;;;;;5075145;28;20203;-75
2021/05/13 11:45:55;;;;;;;1.85;1.60;;;18.00;73.70;;;;;;5074723;28;20288;-75
2021/05/13 11:48:30;;;;;;;1.98;1.77;;;17.90;75.60;;;;;;5075143;28;20199;-75
2021/05/13 11:50:59;;;;;;;2.45;2.13;;;17.70;74.90;;;;;;5075165;28;20260;-75
2021/05/13 11:53:27;;;;;;;2.70;1.70;;;17.70;75.60;;;;;;5074884;28;20206;-76
2021/05/13 11:55:54;;;;;;;1.30;1.20;;;17.60;78.10;;;;;;5074637;28;20234;-75
2021/05/13 11:58:39;;;;;;;2.10;2.00;;;17.70;77.10;;;;;;5074797;28;20218;-76
2021/05/13 12:01:24;;;;;;;1.75;1.20;;;17.70;74.80;;;;;;5074012;28;20734;-76
2021/05/13 12:03:57;;;;;;;1.42;1.30;;;17.60;73.90;;;;;;5074864;28;20202;-74
2021/05/13 12:06:23;;;;;;;1.00;1.00;;;17.60;73.40;;;;;;5074776;28;20223;-76
2021/05/13 12:08:50;;;;;;;4.65;1.50;;;17.70;75.90;;;;;;5074923;28;20673;-75
2021/05/13 12:11:22;;;;;;;1.40;1.30;;;17.70;76.60;;;;;;5074573;28;20206;-75
2021/05/13 12:13:49;;;;;;;1.40;1.30;;;17.50;75.50;;;;;;5075055;28;20699;-75
2021/05/13 12:16:17;;;;;;;1.40;1.30;;;17.50;74.20;;;;;;5073973;28;20265;-76
2021/05/13 12:18:47;;;;;;;1.15;0.95;;;17.70;76.00;;;;;;5074305;28;20708;-75
2021/05/13 12:21:15;;;;;;;1.23;1.13;;;17.70;72.70;;;;;;5075161;28;20683;-75
2021/05/13 12:23:42;;;;;;;1.20;1.10;;;17.80;71.70;;;;;;5074164;28;20204;-75
2021/05/13 12:26:11;;;;;;;3.35;1.40;;;17.90;69.50;;;;;;5073957;28;20223;-75
2021/05/13 12:28:38;;;;;;;1.63;1.40;;;18.10;71.80;;;;;;5074567;28;20674;-75
2021/05/13 12:31:05;;;;;;;1.30;1.20;;;18.00;69.20;;;;;;5074360;28;20612;-75
2021/05/13 12:33:35;;;;;;;1.10;1.00;;;18.20;71.80;;;;;;5073899;28;20213;-74
2021/05/13 12:36:04;;;;;;;1.48;0.98;;;18.30;71.70;;;;;;5073834;28;20227;-75
2021/05/13 12:38:30;;;;;;;0.82;0.82;;;18.20;66.60;;;;;;5073894;28;20317;-75
2021/05/13 12:41:09;;;;;;;1.38;1.00;;;18.20;69.70;;;;;;5073859;28;20297;-74
2021/05/13 12:43:36;;;;;;;2.45;1.13;;;18.10;69.00;;;;;;5073859;28;20202;-75
2021/05/13 12:46:19;;;;;;;0.95;0.95;;;18.10;66.30;;;;;;5073473;28;20222;-75
2021/05/13 12:48:45;;;;;;;2.65;1.30;;;18.30;67.70;;;;;;5073861;28;20680;-74
2021/05/13 12:51:16;;;;;;;1.65;1.55;;;18.60;69.20;;;;;;5073504;28;20212;-73
2021/05/13 12:53:47;;;;;;;1.30;1.20;;;19.00;71.80;;;;;;5073262;28;20230;-74